Houston, Texas
Traffic Map
Current Weather Conditions
Houston, Texas
Clear
Clear
24°
Feels Like: 24°
Wind Chill: 24° Ceiling: Unl
Heat Index: 24° Visibility: 10mi
Dew Point: Wind: 12mph
Humidity: 38% Direction: 350° (N)
Pressure: 30.13in Gusts: 17mph
Raw Report DataKMCJ 181755Z AUTO 35010G15KT 10SM CLR 24/09 A3013 RMK AO1
Traffic Incident Summary
Active as of:
Severity:
Category:
InformationThere was an issue retrieving the traffic information for this location. Please try a different location or try again shortly.
Advertisements
At Last! Intellicast now available for iPhone and Android